Flight Track Log - Related Links

Times and Time Zones

All times are in EDT time to prevent confusion due to time zone crossing. See the N298EU flight status page for this flight to view local times or setup timezone preferences in your user account.

Time Position Orientation Groundspeed Altitude Reporting Facility
EDT Latitude Longitude Course Direction KTS MPH feet Rate Location/Type
Sun 12:12:18 PM 42.5900 -70.8740 81° East 106 122 1,400  Level FlightAware ADS-B
Sun 12:12:48 PM 42.5930 -70.8530 79° East 112 129 1,900 517 Climbing FlightAware ADS-B
Sun 12:13:16 PM 42.5970 -70.8340 74° East 129 148 1,900  Level FlightAware ADS-B
Sun 12:13:28 PM 42.6020 -70.8260 50° Northeast 124 143 1,900  Level FlightAware ADS-B
Sun 12:13:38 PM 42.6080 -70.8230 20° North 134 154 1,900 150 Level FlightAware ADS-B
Sun 12:14:08 PM 42.6270 -70.8290 347° North 134 154 2,000 600 Climbing FlightAware ADS-B
Sun 12:14:38 PM 42.6440 -70.8360 343° North 119 137 2,500 900 Climbing FlightAware ADS-B
Sun 12:14:48 PM 42.6500 -70.8380 346° North 118 136 2,600 600 Climbing FlightAware ADS-B
Sun 12:15:08 PM 42.6590 -70.8460 327° Northwest 133 153 2,800 471 Climbing FlightAware ADS-B
Sun 12:15:39 PM 42.6660 -70.8730 289° West 144 166 3,000 214 Climbing FlightAware ADS-B
Sun 12:16:04 PM 42.6670 -70.8960 273° West 146 168 3,000  Level FlightAware ADS-B
Sun 12:16:34 PM 42.6680 -70.9240 273° West 151 174 3,000  Level FlightAware ADS-B
Sun 12:17:14 PM 42.6660 -70.9600 266° West 150 173 3,000  Level FlightAware ADS-B
Sun 12:17:34 PM 42.6620 -70.9800 255° West 153 176 3,000  Level FlightAware ADS-B
Sun 12:17:49 PM 42.6590 -70.9950 255° West 157 181 3,000  Level FlightAware ADS-B
Sun 12:18:24 PM 42.6520 -71.0280 254° West 164 189 3,000  Level FlightAware ADS-B
Sun 12:18:34 PM 42.6500 -71.0380 255° West 164 189 3,000  Level FlightAware ADS-B
Sun 12:18:59 PM 42.6420 -71.0610 245° Southwest 158 182 3,000 -100 Level FlightAware ADS-B
Sun 12:19:34 PM 42.6270 -71.0900 235° Southwest 160 184 2,900 -436 Descending FlightAware ADS-B
Sun 12:19:54 PM 42.6180 -71.1080 236° Southwest 164 189 2,600 -316 Descending FlightAware ADS-B
Sun 12:22:44 PM 42.5700 -71.2420 244° Southwest 136 157 1,900 -236 Descending FlightAware ADS-B
Sun 12:22:52 PM 42.5740 -71.2470 317° Northwest 137 158 1,900 -136 Level FlightAware ADS-B
Sun 12:23:28 PM 42.5970 -71.2470 360° North 138 159 1,800 -125 Descending FlightAware ADS-B
Sun 12:23:40 PM 42.6040 -71.2430 23° Northeast 138 159 1,800  Level FlightAware ADS-B
Sun 12:24:08 PM 42.6180 -71.2290 36° Northeast 137 158 1,800  Level FlightAware ADS-B
Sun 12:24:46 PM 42.6350 -71.2100 39° Northeast 94 108 1,800 -91 Level FlightAware ADS-B
Sun 12:25:14 PM 42.6460 -71.1990 36° Northeast 109 125 1,700 -346 Descending FlightAware ADS-B
Sun 12:25:38 PM 42.6550 -71.1900 36° Northeast 105 121 1,500 -556 Descending FlightAware ADS-B
Sun 12:26:08 PM 42.6660 -71.1770 41° Northeast 106 122 1,200 -621 Descending FlightAware ADS-B
Sun 12:26:36 PM 42.6770 -71.1660 36° Northeast 105 121 900 -600 Descending FlightAware ADS-B
Sun 12:26:58 PM 42.6860 -71.1560 39° Northeast 106 122 700 -517 Descending FlightAware ADS-B
Sun 12:27:34 PM 42.6990 -71.1420 38° Northeast 104 120 400 -400 Descending FlightAware ADS-B
Sun 12:27:58 PM 42.7090 -71.1310 39° Northeast 106 122 300 462 Descending FlightAware ADS-B
Sun 12:28:26 PM 42.7200 -71.1180 41° Northeast 115 132 800 1,174 Climbing FlightAware ADS-B
Sun 12:28:44 PM 42.7270 -71.1110 36° Northeast 113 130 1,200 1,154 Climbing FlightAware ADS-B
Sun 12:28:52 PM 42.7300 -71.1060 51° Northeast 115 132 1,300 1,071 Climbing FlightAware ADS-B
Sun 12:29:12 PM 42.7290 -71.0920 96° East 119 137 1,700 1,125 Climbing FlightAware ADS-B
Sun 12:29:24 PM 42.7240 -71.0870 144° Southeast 124 143 1,900 300 Climbing FlightAware ADS-B
Sun 12:29:52 PM 42.7070 -71.0960 201° Southwest 152 175 1,900  Level FlightAware ADS-B
Sun 12:30:08 PM 42.6990 -71.1070 225° Southwest 159 183 1,900  Level FlightAware ADS-B
Sun 12:30:28 PM 42.6880 -71.1220 225° Southwest 164 189 1,900  Level FlightAware ADS-B
Sun 12:30:40 PM 42.6820 -71.1300 224° Southwest 164 189 1,900  Level FlightAware ADS-B
Sun 12:30:52 PM 42.6760 -71.1380 224° Southwest 164 189 1,900  Level FlightAware ADS-B
Sun 12:31:22 PM 42.6590 -71.1600 224° Southwest 163 188 1,900  Level FlightAware ADS-B
Sun 12:31:48 PM 42.6450 -71.1790 225° Southwest 162 186 1,900  Level FlightAware ADS-B
Sun 12:32:12 PM 42.6320 -71.1970 226° Southwest 164 189 1,900  Level FlightAware ADS-B
Sun 12:32:30 PM 42.6230 -71.2090 224° Southwest 165 190 1,900  Level FlightAware ADS-B
Sun 12:32:56 PM 42.6080 -71.2280 223° Southwest 165 190 1,900 -273 Level FlightAware ADS-B
Sun 12:33:14 PM 42.5990 -71.2420 229° Southwest 176 203 1,700 -261 Descending FlightAware ADS-B
Sun 12:33:42 PM 42.5800 -71.2600 215° Southwest 170 196 1,700 -150 Level FlightAware ADS-B
Sun 12:33:54 PM 42.5720 -71.2660 209° Southwest 170 196 1,600 -273 Descending FlightAware ADS-B
Sun 12:34:26 PM 42.5490 -71.2830 209° Southwest 169 194 1,500 -103 Descending FlightAware ADS-B
Sun 12:34:52 PM 42.5320 -71.2950 207° Southwest 165 190 1,500 -118 Level FlightAware ADS-B
Sun 12:35:17 PM 42.5160 -71.3060 207° Southwest 165 190 1,400 -375 Descending FlightAware ADS-B
Sun 12:35:40 PM 42.5000 -71.3160 205° Southwest 144 166 1,200 -480 Descending FlightAware ADS-B
Sun 12:36:07 PM 42.4850 -71.3170 183° South 107 123 1,000 -667 Descending FlightAware ADS-B
Sun 12:36:16 PM 42.4800 -71.3160 172° South 104 120 800 -533 Descending FlightAware ADS-B
Sun 12:36:52 PM 42.4660 -71.3110 165° South 104 120 600 -333 Descending FlightAware ADS-B

Login

Don't have an account? Register now (free) for customized features, flight alerts, and more!